sensor_id;sensor_type;location;lat;lon;timestamp;P1;durP1;ratioP1;P2;durP2;ratioP2
73879;SDS011;62211;42.986;23.256;2022-09-21T00:00:39;4.20;;;3.78;;
73879;SDS011;62211;42.986;23.256;2022-09-21T00:03:05;4.13;;;3.75;;
73879;SDS011;62211;42.986;23.256;2022-09-21T00:05:31;6.20;;;4.50;;
73879;SDS011;62211;42.986;23.256;2022-09-21T00:08:01;4.32;;;3.90;;
73879;SDS011;62211;42.986;23.256;2022-09-21T00:10:28;4.22;;;3.80;;
73879;SDS011;62211;42.986;23.256;2022-09-21T00:12:54;5.25;;;4.18;;
73879;SDS011;62211;42.986;23.256;2022-09-21T00:15:21;5.50;;;3.55;;
73879;SDS011;62211;42.986;23.256;2022-09-21T00:17:46;4.80;;;4.20;;
73879;SDS011;62211;42.986;23.256;2022-09-21T00:20:12;5.45;;;4.10;;
73879;SDS011;62211;42.986;23.256;2022-09-21T00:22:38;4.35;;;3.70;;
73879;SDS011;62211;42.986;23.256;2022-09-21T00:25:04;5.07;;;3.67;;
73879;SDS011;62211;42.986;23.256;2022-09-21T00:27:30;4.28;;;3.92;;
73879;SDS011;62211;42.986;23.256;2022-09-21T00:29:59;4.03;;;3.40;;
73879;SDS011;62211;42.986;23.256;2022-09-21T00:32:26;4.20;;;3.58;;
73879;SDS011;62211;42.986;23.256;2022-09-21T00:34:52;4.00;;;3.17;;
73879;SDS011;62211;42.986;23.256;2022-09-21T00:37:18;4.07;;;3.65;;
73879;SDS011;62211;42.986;23.256;2022-09-21T00:39:44;4.18;;;3.65;;
73879;SDS011;62211;42.986;23.256;2022-09-21T00:42:15;4.15;;;3.05;;
73879;SDS011;62211;42.986;23.256;2022-09-21T00:44:42;3.85;;;3.50;;
73879;SDS011;62211;42.986;23.256;2022-09-21T00:47:41;3.33;;;3.03;;
73879;SDS011;62211;42.986;23.256;2022-09-21T00:50:03;5.68;;;4.07;;
73879;SDS011;62211;42.986;23.256;2022-09-21T00:52:33;4.03;;;3.08;;
73879;SDS011;62211;42.986;23.256;2022-09-21T00:55:02;4.15;;;3.75;;
73879;SDS011;62211;42.986;23.256;2022-09-21T00:57:29;4.35;;;3.78;;
73879;SDS011;62211;42.986;23.256;2022-09-21T00:59:56;4.85;;;3.45;;
73879;SDS011;62211;42.986;23.256;2022-09-21T01:02:25;5.50;;;4.43;;
73879;SDS011;62211;42.986;23.256;2022-09-21T01:04:51;4.63;;;4.22;;
73879;SDS011;62211;42.986;23.256;2022-09-21T01:07:20;4.28;;;3.40;;
73879;SDS011;62211;42.986;23.256;2022-09-21T01:09:49;3.88;;;3.42;;
73879;SDS011;62211;42.986;23.256;2022-09-21T01:25:58;3.92;;;3.50;;
73879;SDS011;62211;42.986;23.256;2022-09-21T01:32:19;4.50;;;3.65;;
73879;SDS011;62211;42.986;23.256;2022-09-21T01:34:38;4.25;;;3.35;;
73879;SDS011;62211;42.986;23.256;2022-09-21T01:37:10;4.28;;;3.88;;
73879;SDS011;62211;42.986;23.256;2022-09-21T01:39:39;12.20;;;6.22;;
73879;SDS011;62211;42.986;23.256;2022-09-21T01:42:08;6.00;;;4.30;;
73879;SDS011;62211;42.986;23.256;2022-09-21T01:44:34;7.05;;;3.88;;
73879;SDS011;62211;42.986;23.256;2022-09-21T01:47:02;7.50;;;4.75;;
73879;SDS011;62211;42.986;23.256;2022-09-21T01:49:34;4.53;;;3.58;;
73879;SDS011;62211;42.986;23.256;2022-09-21T01:52:02;4.20;;;3.60;;
73879;SDS011;62211;42.986;23.256;2022-09-21T01:54:51;4.13;;;3.22;;
73879;SDS011;62211;42.986;23.256;2022-09-21T01:59:48;4.20;;;3.80;;
73879;SDS011;62211;42.986;23.256;2022-09-21T02:02:18;4.60;;;4.10;;
73879;SDS011;62211;42.986;23.256;2022-09-21T02:04:46;5.00;;;3.92;;
73879;SDS011;62211;42.986;23.256;2022-09-21T02:07:11;4.20;;;3.80;;
73879;SDS011;62211;42.986;23.256;2022-09-21T02:09:37;4.88;;;4.25;;
73879;SDS011;62211;42.986;23.256;2022-09-21T02:12:03;7.13;;;4.25;;
73879;SDS011;62211;42.986;23.256;2022-09-21T02:14:29;7.15;;;4.32;;
73879;SDS011;62211;42.986;23.256;2022-09-21T02:19:47;4.15;;;3.75;;
73879;SDS011;62211;42.986;23.256;2022-09-21T02:25:12;6.97;;;4.15;;
73879;SDS011;62211;42.986;23.256;2022-09-21T02:27:50;4.50;;;3.70;;
73879;SDS011;62211;42.986;23.256;2022-09-21T02:30:19;3.63;;;3.33;;
73879;SDS011;62211;42.986;23.256;2022-09-21T02:35:41;3.65;;;3.35;;
73879;SDS011;62211;42.986;23.256;2022-09-21T02:41:18;6.20;;;3.90;;
73879;SDS011;62211;42.986;23.256;2022-09-21T02:44:16;6.75;;;4.38;;
73879;SDS011;62211;42.986;23.256;2022-09-21T02:46:58;5.00;;;3.60;;
73879;SDS011;62211;42.986;23.256;2022-09-21T02:49:29;5.85;;;4.65;;
73879;SDS011;62211;42.986;23.256;2022-09-21T02:51:59;4.38;;;3.45;;
73879;SDS011;62211;42.986;23.256;2022-09-21T02:54:28;5.80;;;3.85;;
73879;SDS011;62211;42.986;23.256;2022-09-21T02:56:55;4.38;;;3.97;;
73879;SDS011;62211;42.986;23.256;2022-09-21T02:59:21;4.55;;;4.13;;
73879;SDS011;62211;42.986;23.256;2022-09-21T03:01:50;4.53;;;3.90;;
73879;SDS011;62211;42.986;23.256;2022-09-21T03:04:16;6.80;;;3.88;;
73879;SDS011;62211;42.986;23.256;2022-09-21T03:19:37;4.18;;;3.78;;
73879;SDS011;62211;42.986;23.256;2022-09-21T03:22:03;4.35;;;3.58;;
73879;SDS011;62211;42.986;23.256;2022-09-21T03:24:28;7.95;;;3.67;;
73879;SDS011;62211;42.986;23.256;2022-09-21T03:27:21;4.20;;;3.83;;
73879;SDS011;62211;42.986;23.256;2022-09-21T03:29:47;5.57;;;4.63;;
73879;SDS011;62211;42.986;23.256;2022-09-21T03:32:13;5.20;;;4.63;;
73879;SDS011;62211;42.986;23.256;2022-09-21T03:34:38;10.25;;;5.22;;
73879;SDS011;62211;42.986;23.256;2022-09-21T03:37:05;4.32;;;3.92;;
73879;SDS011;62211;42.986;23.256;2022-09-21T03:39:31;4.32;;;3.50;;
73879;SDS011;62211;42.986;23.256;2022-09-21T03:41:57;3.85;;;3.45;;
73879;SDS011;62211;42.986;23.256;2022-09-21T03:44:23;4.80;;;4.40;;
73879;SDS011;62211;42.986;23.256;2022-09-21T03:46:49;5.20;;;4.50;;
73879;SDS011;62211;42.986;23.256;2022-09-21T03:49:15;3.92;;;3.53;;
73879;SDS011;62211;42.986;23.256;2022-09-21T03:51:41;5.25;;;4.13;;
73879;SDS011;62211;42.986;23.256;2022-09-21T03:54:07;4.93;;;4.20;;
73879;SDS011;62211;42.986;23.256;2022-09-21T03:56:33;6.32;;;3.78;;
73879;SDS011;62211;42.986;23.256;2022-09-21T03:58:58;5.30;;;4.80;;
73879;SDS011;62211;42.986;23.256;2022-09-21T04:01:24;4.28;;;3.88;;
73879;SDS011;62211;42.986;23.256;2022-09-21T04:03:49;9.38;;;4.28;;
73879;SDS011;62211;42.986;23.256;2022-09-21T04:06:15;5.90;;;4.60;;
73879;SDS011;62211;42.986;23.256;2022-09-21T04:08:40;4.55;;;4.03;;
73879;SDS011;62211;42.986;23.256;2022-09-21T04:11:10;7.13;;;4.60;;
73879;SDS011;62211;42.986;23.256;2022-09-21T04:13:36;8.23;;;4.20;;
73879;SDS011;62211;42.986;23.256;2022-09-21T04:16:01;5.15;;;3.75;;
73879;SDS011;62211;42.986;23.256;2022-09-21T04:18:27;4.63;;;4.00;;
73879;SDS011;62211;42.986;23.256;2022-09-21T04:20:52;5.00;;;4.50;;
73879;SDS011;62211;42.986;23.256;2022-09-21T04:23:18;4.72;;;4.10;;
73879;SDS011;62211;42.986;23.256;2022-09-21T04:25:44;6.15;;;4.50;;
73879;SDS011;62211;42.986;23.256;2022-09-21T04:28:11;5.30;;;4.80;;
73879;SDS011;62211;42.986;23.256;2022-09-21T04:30:36;6.82;;;4.57;;
73879;SDS011;62211;42.986;23.256;2022-09-21T04:33:02;5.47;;;4.10;;
73879;SDS011;62211;42.986;23.256;2022-09-21T04:35:27;5.13;;;4.60;;
73879;SDS011;62211;42.986;23.256;2022-09-21T04:37:53;6.05;;;4.40;;
73879;SDS011;62211;42.986;23.256;2022-09-21T04:40:20;10.48;;;4.47;;
73879;SDS011;62211;42.986;23.256;2022-09-21T04:42:49;6.45;;;5.07;;
73879;SDS011;62211;42.986;23.256;2022-09-21T04:45:16;6.97;;;5.32;;
73879;SDS011;62211;42.986;23.256;2022-09-21T04:47:41;9.18;;;5.90;;
73879;SDS011;62211;42.986;23.256;2022-09-21T04:50:07;7.88;;;5.90;;
73879;SDS011;62211;42.986;23.256;2022-09-21T04:52:33;7.90;;;6.60;;
73879;SDS011;62211;42.986;23.256;2022-09-21T04:54:58;7.85;;;6.85;;
73879;SDS011;62211;42.986;23.256;2022-09-21T04:57:24;9.32;;;7.03;;
73879;SDS011;62211;42.986;23.256;2022-09-21T04:59:49;8.38;;;6.93;;
73879;SDS011;62211;42.986;23.256;2022-09-21T05:02:14;9.02;;;6.45;;
73879;SDS011;62211;42.986;23.256;2022-09-21T05:04:40;11.77;;;6.60;;
73879;SDS011;62211;42.986;23.256;2022-09-21T05:07:05;9.70;;;7.10;;
73879;SDS011;62211;42.986;23.256;2022-09-21T05:09:31;8.35;;;6.35;;
73879;SDS011;62211;42.986;23.256;2022-09-21T05:14:40;7.32;;;5.22;;
73879;SDS011;62211;42.986;23.256;2022-09-21T05:17:08;10.70;;;6.00;;
73879;SDS011;62211;42.986;23.256;2022-09-21T05:19:33;11.95;;;6.65;;
73879;SDS011;62211;42.986;23.256;2022-09-21T05:21:58;10.32;;;5.85;;
73879;SDS011;62211;42.986;23.256;2022-09-21T05:24:24;6.63;;;5.78;;
73879;SDS011;62211;42.986;23.256;2022-09-21T05:26:49;9.80;;;6.22;;
73879;SDS011;62211;42.986;23.256;2022-09-21T05:29:15;8.35;;;5.38;;
73879;SDS011;62211;42.986;23.256;2022-09-21T05:31:47;6.03;;;4.95;;
73879;SDS011;62211;42.986;23.256;2022-09-21T05:34:20;11.38;;;7.07;;
73879;SDS011;62211;42.986;23.256;2022-09-21T05:39:23;10.27;;;6.97;;
73879;SDS011;62211;42.986;23.256;2022-09-21T05:41:49;13.98;;;6.60;;
73879;SDS011;62211;42.986;23.256;2022-09-21T05:44:14;9.00;;;6.25;;
73879;SDS011;62211;42.986;23.256;2022-09-21T05:47:02;9.05;;;6.38;;
73879;SDS011;62211;42.986;23.256;2022-09-21T05:58:23;37.38;;;8.77;;
73879;SDS011;62211;42.986;23.256;2022-09-21T06:01:00;10.45;;;5.70;;
73879;SDS011;62211;42.986;23.256;2022-09-21T06:03:34;9.38;;;5.15;;
73879;SDS011;62211;42.986;23.256;2022-09-21T06:06:00;9.32;;;6.15;;
73879;SDS011;62211;42.986;23.256;2022-09-21T06:08:26;14.15;;;7.32;;
73879;SDS011;62211;42.986;23.256;2022-09-21T06:10:51;9.10;;;6.50;;
73879;SDS011;62211;42.986;23.256;2022-09-21T06:13:16;9.77;;;7.03;;
73879;SDS011;62211;42.986;23.256;2022-09-21T06:15:42;8.90;;;6.75;;
73879;SDS011;62211;42.986;23.256;2022-09-21T06:18:08;23.70;;;12.15;;
73879;SDS011;62211;42.986;23.256;2022-09-21T06:20:34;23.20;;;9.50;;
73879;SDS011;62211;42.986;23.256;2022-09-21T06:23:03;24.65;;;10.40;;
73879;SDS011;62211;42.986;23.256;2022-09-21T06:25:30;15.15;;;8.43;;
73879;SDS011;62211;42.986;23.256;2022-09-21T06:28:00;10.60;;;6.72;;
73879;SDS011;62211;42.986;23.256;2022-09-21T06:30:48;23.45;;;13.75;;
73879;SDS011;62211;42.986;23.256;2022-09-21T06:33:15;18.75;;;10.93;;
73879;SDS011;62211;42.986;23.256;2022-09-21T06:35:50;13.18;;;8.35;;
73879;SDS011;62211;42.986;23.256;2022-09-21T06:38:23;11.95;;;8.25;;
73879;SDS011;62211;42.986;23.256;2022-09-21T06:40:49;10.02;;;7.38;;
73879;SDS011;62211;42.986;23.256;2022-09-21T06:43:15;9.43;;;7.20;;
73879;SDS011;62211;42.986;23.256;2022-09-21T06:45:40;10.68;;;7.72;;
73879;SDS011;62211;42.986;23.256;2022-09-21T06:48:06;8.23;;;5.72;;
73879;SDS011;62211;42.986;23.256;2022-09-21T06:50:32;10.40;;;5.60;;
73879;SDS011;62211;42.986;23.256;2022-09-21T06:53:00;6.50;;;5.38;;
73879;SDS011;62211;42.986;23.256;2022-09-21T06:55:27;6.82;;;5.53;;
73879;SDS011;62211;42.986;23.256;2022-09-21T06:57:58;6.50;;;4.95;;
73879;SDS011;62211;42.986;23.256;2022-09-21T07:00:26;6.07;;;4.88;;
73879;SDS011;62211;42.986;23.256;2022-09-21T07:02:52;5.07;;;3.83;;
73879;SDS011;62211;42.986;23.256;2022-09-21T07:05:18;7.15;;;4.00;;
73879;SDS011;62211;42.986;23.256;2022-09-21T07:07:43;5.10;;;4.00;;
73879;SDS011;62211;42.986;23.256;2022-09-21T07:10:09;4.70;;;3.92;;
73879;SDS011;62211;42.986;23.256;2022-09-21T07:12:34;6.10;;;4.63;;
73879;SDS011;62211;42.986;23.256;2022-09-21T07:15:00;8.90;;;5.18;;
73879;SDS011;62211;42.986;23.256;2022-09-21T07:17:32;5.80;;;5.20;;
73879;SDS011;62211;42.986;23.256;2022-09-21T07:19:59;4.50;;;3.90;;
73879;SDS011;62211;42.986;23.256;2022-09-21T07:22:29;4.45;;;3.38;;
73879;SDS011;62211;42.986;23.256;2022-09-21T07:24:56;5.20;;;3.88;;
73879;SDS011;62211;42.986;23.256;2022-09-21T07:27:22;5.53;;;4.25;;
73879;SDS011;62211;42.986;23.256;2022-09-21T07:29:48;5.43;;;4.57;;
73879;SDS011;62211;42.986;23.256;2022-09-21T07:32:13;6.20;;;4.70;;
73879;SDS011;62211;42.986;23.256;2022-09-21T07:34:39;9.60;;;5.20;;
73879;SDS011;62211;42.986;23.256;2022-09-21T07:37:04;8.15;;;7.18;;
73879;SDS011;62211;42.986;23.256;2022-09-21T07:39:30;12.48;;;7.53;;
73879;SDS011;62211;42.986;23.256;2022-09-21T07:41:55;26.35;;;7.47;;
73879;SDS011;62211;42.986;23.256;2022-09-21T07:44:22;8.73;;;5.45;;
73879;SDS011;62211;42.986;23.256;2022-09-21T07:46:48;7.63;;;4.72;;
73879;SDS011;62211;42.986;23.256;2022-09-21T07:49:14;8.85;;;7.38;;
73879;SDS011;62211;42.986;23.256;2022-09-21T07:51:39;10.15;;;7.38;;
73879;SDS011;62211;42.986;23.256;2022-09-21T07:54:05;9.05;;;7.35;;
73879;SDS011;62211;42.986;23.256;2022-09-21T07:56:30;4.50;;;4.10;;
73879;SDS011;62211;42.986;23.256;2022-09-21T07:58:56;6.03;;;4.22;;
73879;SDS011;62211;42.986;23.256;2022-09-21T08:01:31;3.47;;;3.17;;
73879;SDS011;62211;42.986;23.256;2022-09-21T08:04:06;3.63;;;2.95;;
73879;SDS011;62211;42.986;23.256;2022-09-21T08:06:33;3.50;;;3.20;;
73879;SDS011;62211;42.986;23.256;2022-09-21T08:09:00;6.45;;;3.80;;
73879;SDS011;62211;42.986;23.256;2022-09-21T08:11:26;2.88;;;2.67;;
73879;SDS011;62211;42.986;23.256;2022-09-21T08:13:55;6.13;;;3.00;;
73879;SDS011;62211;42.986;23.256;2022-09-21T08:16:25;3.63;;;3.10;;
73879;SDS011;62211;42.986;23.256;2022-09-21T08:18:51;3.97;;;3.58;;
73879;SDS011;62211;42.986;23.256;2022-09-21T08:21:17;6.72;;;2.78;;
73879;SDS011;62211;42.986;23.256;2022-09-21T08:23:44;3.85;;;3.53;;
73879;SDS011;62211;42.986;23.256;2022-09-21T08:26:10;3.78;;;3.30;;
73879;SDS011;62211;42.986;23.256;2022-09-21T08:28:42;3.90;;;3.50;;
73879;SDS011;62211;42.986;23.256;2022-09-21T08:31:08;6.18;;;3.45;;
73879;SDS011;62211;42.986;23.256;2022-09-21T08:33:34;4.28;;;2.92;;
73879;SDS011;62211;42.986;23.256;2022-09-21T08:36:00;3.85;;;3.05;;
73879;SDS011;62211;42.986;23.256;2022-09-21T08:38:26;3.65;;;3.05;;
73879;SDS011;62211;42.986;23.256;2022-09-21T08:40:56;3.05;;;2.80;;
73879;SDS011;62211;42.986;23.256;2022-09-21T08:43:35;2.67;;;2.13;;
73879;SDS011;62211;42.986;23.256;2022-09-21T08:46:11;2.47;;;2.28;;
73879;SDS011;62211;42.986;23.256;2022-09-21T08:48:42;2.13;;;2.00;;
73879;SDS011;62211;42.986;23.256;2022-09-21T08:51:13;2.15;;;2.05;;
73879;SDS011;62211;42.986;23.256;2022-09-21T08:53:42;2.33;;;2.13;;
73879;SDS011;62211;42.986;23.256;2022-09-21T08:56:10;6.10;;;1.88;;
73879;SDS011;62211;42.986;23.256;2022-09-21T08:58:36;2.97;;;1.85;;
73879;SDS011;62211;42.986;23.256;2022-09-21T09:18:17;2.65;;;2.25;;
73879;SDS011;62211;42.986;23.256;2022-09-21T09:20:56;2.10;;;1.90;;
73879;SDS011;62211;42.986;23.256;2022-09-21T09:26:37;2.33;;;2.08;;
73879;SDS011;62211;42.986;23.256;2022-09-21T09:32:10;1.80;;;1.70;;
73879;SDS011;62211;42.986;23.256;2022-09-21T09:34:39;4.15;;;2.00;;
73879;SDS011;62211;42.986;23.256;2022-09-21T09:37:11;3.22;;;1.70;;
73879;SDS011;62211;42.986;23.256;2022-09-21T09:39:38;8.07;;;2.55;;
73879;SDS011;62211;42.986;23.256;2022-09-21T09:52:39;8.23;;;4.53;;
73879;SDS011;62211;42.986;23.256;2022-09-21T09:55:16;7.38;;;4.10;;
73879;SDS011;62211;42.986;23.256;2022-09-21T09:57:44;3.05;;;2.38;;
73879;SDS011;62211;42.986;23.256;2022-09-21T10:00:12;2.45;;;1.92;;
73879;SDS011;62211;42.986;23.256;2022-09-21T10:02:52;6.55;;;2.53;;
73879;SDS011;62211;42.986;23.256;2022-09-21T10:05:20;5.10;;;2.90;;
73879;SDS011;62211;42.986;23.256;2022-09-21T10:08:18;3.38;;;1.95;;
73879;SDS011;62211;42.986;23.256;2022-09-21T10:11:09;3.10;;;2.17;;
73879;SDS011;62211;42.986;23.256;2022-09-21T10:13:37;3.13;;;1.60;;
73879;SDS011;62211;42.986;23.256;2022-09-21T10:16:14;2.50;;;1.75;;
73879;SDS011;62211;42.986;23.256;2022-09-21T10:18:46;6.32;;;3.40;;
73879;SDS011;62211;42.986;23.256;2022-09-21T10:23:57;3.15;;;1.92;;
73879;SDS011;62211;42.986;23.256;2022-09-21T10:26:35;1.80;;;1.60;;
73879;SDS011;62211;42.986;23.256;2022-09-21T10:29:18;1.67;;;1.60;;
73879;SDS011;62211;42.986;23.256;2022-09-21T10:31:59;2.00;;;1.80;;
73879;SDS011;62211;42.986;23.256;2022-09-21T10:34:30;2.22;;;1.70;;
73879;SDS011;62211;42.986;23.256;2022-09-21T10:37:00;1.45;;;1.35;;
73879;SDS011;62211;42.986;23.256;2022-09-21T10:39:30;1.30;;;1.20;;
73879;SDS011;62211;42.986;23.256;2022-09-21T10:42:09;1.00;;;1.00;;
73879;SDS011;62211;42.986;23.256;2022-09-21T10:44:40;0.80;;;0.80;;
73879;SDS011;62211;42.986;23.256;2022-09-21T10:49:50;1.63;;;0.90;;
73879;SDS011;62211;42.986;23.256;2022-09-21T10:52:21;1.98;;;1.20;;
73879;SDS011;62211;42.986;23.256;2022-09-21T10:54:50;2.58;;;1.10;;
73879;SDS011;62211;42.986;23.256;2022-09-21T10:57:19;3.55;;;2.58;;
73879;SDS011;62211;42.986;23.256;2022-09-21T10:59:46;5.13;;;1.75;;
73879;SDS011;62211;42.986;23.256;2022-09-21T11:13:46;49.83;;;23.45;;
73879;SDS011;62211;42.986;23.256;2022-09-21T11:21:40;6.13;;;3.60;;
73879;SDS011;62211;42.986;23.256;2022-09-21T11:29:54;6.10;;;4.13;;
73879;SDS011;62211;42.986;23.256;2022-09-21T11:40:28;11.35;;;7.15;;
73879;SDS011;62211;42.986;23.256;2022-09-21T11:51:58;1.63;;;1.30;;
73879;SDS011;62211;42.986;23.256;2022-09-21T11:57:25;0.93;;;0.93;;
73879;SDS011;62211;42.986;23.256;2022-09-21T12:08:55;4.70;;;2.63;;
73879;SDS011;62211;42.986;23.256;2022-09-21T12:16:45;4.05;;;2.25;;
73879;SDS011;62211;42.986;23.256;2022-09-21T12:19:29;3.58;;;2.42;;
73879;SDS011;62211;42.986;23.256;2022-09-21T12:27:53;3.47;;;2.47;;
73879;SDS011;62211;42.986;23.256;2022-09-21T12:30:21;5.03;;;2.92;;
73879;SDS011;62211;42.986;23.256;2022-09-21T12:35:29;3.65;;;2.75;;
73879;SDS011;62211;42.986;23.256;2022-09-21T12:41:14;4.07;;;2.28;;
73879;SDS011;62211;42.986;23.256;2022-09-21T12:46:13;3.83;;;3.38;;
73879;SDS011;62211;42.986;23.256;2022-09-21T12:48:40;4.18;;;2.88;;
73879;SDS011;62211;42.986;23.256;2022-09-21T12:53:50;1.93;;;1.73;;
73879;SDS011;62211;42.986;23.256;2022-09-21T12:56:28;1.67;;;1.45;;
73879;SDS011;62211;42.986;23.256;2022-09-21T12:59:44;2.15;;;1.20;;
73879;SDS011;62211;42.986;23.256;2022-09-21T13:05:00;1.65;;;1.45;;
73879;SDS011;62211;42.986;23.256;2022-09-21T13:12:57;4.88;;;3.80;;
73879;SDS011;62211;42.986;23.256;2022-09-21T13:15:26;7.18;;;2.90;;
73879;SDS011;62211;42.986;23.256;2022-09-21T13:17:56;6.32;;;4.10;;
73879;SDS011;62211;42.986;23.256;2022-09-21T13:20:24;5.30;;;3.42;;
73879;SDS011;62211;42.986;23.256;2022-09-21T13:22:50;15.40;;;5.03;;
73879;SDS011;62211;42.986;23.256;2022-09-21T13:25:23;7.07;;;2.75;;
73879;SDS011;62211;42.986;23.256;2022-09-21T13:33:00;2.00;;;1.30;;
73879;SDS011;62211;42.986;23.256;2022-09-21T13:35:47;1.38;;;1.27;;
73879;SDS011;62211;42.986;23.256;2022-09-21T13:51:34;7.50;;;2.95;;
73879;SDS011;62211;42.986;23.256;2022-09-21T13:54:14;8.63;;;5.45;;
73879;SDS011;62211;42.986;23.256;2022-09-21T13:56:39;1.90;;;1.65;;
73879;SDS011;62211;42.986;23.256;2022-09-21T13:59:12;1.40;;;1.30;;
73879;SDS011;62211;42.986;23.256;2022-09-21T14:01:46;4.60;;;1.30;;
73879;SDS011;62211;42.986;23.256;2022-09-21T14:04:17;1.58;;;1.23;;
73879;SDS011;62211;42.986;23.256;2022-09-21T14:06:47;1.35;;;1.20;;
73879;SDS011;62211;42.986;23.256;2022-09-21T14:09:27;2.55;;;2.35;;
73879;SDS011;62211;42.986;23.256;2022-09-21T14:11:56;1.70;;;1.20;;
73879;SDS011;62211;42.986;23.256;2022-09-21T14:14:35;2.15;;;1.20;;
73879;SDS011;62211;42.986;23.256;2022-09-21T14:17:03;1.83;;;1.42;;
73879;SDS011;62211;42.986;23.256;2022-09-21T14:24:33;4.18;;;2.28;;
73879;SDS011;62211;42.986;23.256;2022-09-21T14:30:05;2.78;;;2.40;;
73879;SDS011;62211;42.986;23.256;2022-09-21T14:35:27;22.20;;;13.73;;
73879;SDS011;62211;42.986;23.256;2022-09-21T14:38:00;21.75;;;10.98;;
73879;SDS011;62211;42.986;23.256;2022-09-21T14:40:30;2.70;;;1.98;;
73879;SDS011;62211;42.986;23.256;2022-09-21T14:42:58;2.17;;;1.98;;
73879;SDS011;62211;42.986;23.256;2022-09-21T14:56:33;0.85;;;0.85;;
73879;SDS011;62211;42.986;23.256;2022-09-21T15:02:24;4.32;;;1.67;;
73879;SDS011;62211;42.986;23.256;2022-09-21T15:07:31;3.08;;;1.50;;
73879;SDS011;62211;42.986;23.256;2022-09-21T15:10:29;2.75;;;1.70;;
73879;SDS011;62211;42.986;23.256;2022-09-21T15:19:01;2.85;;;1.98;;
73879;SDS011;62211;42.986;23.256;2022-09-21T15:24:19;1.60;;;1.50;;
73879;SDS011;62211;42.986;23.256;2022-09-21T15:26:45;4.93;;;1.77;;
73879;SDS011;62211;42.986;23.256;2022-09-21T15:29:18;4.35;;;2.22;;
73879;SDS011;62211;42.986;23.256;2022-09-21T15:31:55;2.10;;;1.85;;
73879;SDS011;62211;42.986;23.256;2022-09-21T15:34:21;6.70;;;2.25;;
73879;SDS011;62211;42.986;23.256;2022-09-21T15:36:47;7.22;;;2.10;;
73879;SDS011;62211;42.986;23.256;2022-09-21T15:39:29;3.13;;;2.55;;
73879;SDS011;62211;42.986;23.256;2022-09-21T15:42:00;4.15;;;2.80;;
73879;SDS011;62211;42.986;23.256;2022-09-21T15:44:41;8.38;;;3.85;;
73879;SDS011;62211;42.986;23.256;2022-09-21T15:47:12;7.55;;;4.38;;
73879;SDS011;62211;42.986;23.256;2022-09-21T15:49:40;4.78;;;2.58;;
73879;SDS011;62211;42.986;23.256;2022-09-21T15:55:13;2.22;;;2.03;;
73879;SDS011;62211;42.986;23.256;2022-09-21T15:57:43;3.63;;;2.90;;
73879;SDS011;62211;42.986;23.256;2022-09-21T16:02:42;5.85;;;3.55;;
73879;SDS011;62211;42.986;23.256;2022-09-21T16:14:23;21.17;;;8.75;;
73879;SDS011;62211;42.986;23.256;2022-09-21T16:22:35;5.07;;;3.50;;
73879;SDS011;62211;42.986;23.256;2022-09-21T16:25:01;3.10;;;2.60;;
73879;SDS011;62211;42.986;23.256;2022-09-21T16:27:29;7.85;;;5.40;;
73879;SDS011;62211;42.986;23.256;2022-09-21T16:29:56;12.68;;;8.57;;
73879;SDS011;62211;42.986;23.256;2022-09-21T16:34:51;16.73;;;12.02;;
73879;SDS011;62211;42.986;23.256;2022-09-21T16:39:55;14.55;;;10.15;;
73879;SDS011;62211;42.986;23.256;2022-09-21T16:42:22;17.00;;;11.73;;
73879;SDS011;62211;42.986;23.256;2022-09-21T16:44:51;12.80;;;6.75;;
73879;SDS011;62211;42.986;23.256;2022-09-21T16:47:18;9.98;;;6.55;;
73879;SDS011;62211;42.986;23.256;2022-09-21T16:49:49;21.00;;;11.80;;
73879;SDS011;62211;42.986;23.256;2022-09-21T16:52:17;20.75;;;10.88;;
73879;SDS011;62211;42.986;23.256;2022-09-21T16:54:43;22.23;;;12.82;;
73879;SDS011;62211;42.986;23.256;2022-09-21T16:57:09;29.02;;;14.13;;
73879;SDS011;62211;42.986;23.256;2022-09-21T16:59:37;76.45;;;27.13;;
73879;SDS011;62211;42.986;23.256;2022-09-21T17:02:02;95.70;;;31.77;;
73879;SDS011;62211;42.986;23.256;2022-09-21T17:04:29;83.97;;;34.05;;
73879;SDS011;62211;42.986;23.256;2022-09-21T17:06:56;66.30;;;25.58;;
73879;SDS011;62211;42.986;23.256;2022-09-21T17:09:41;45.50;;;17.58;;
73879;SDS011;62211;42.986;23.256;2022-09-21T17:12:09;40.17;;;19.00;;
73879;SDS011;62211;42.986;23.256;2022-09-21T17:14:37;69.45;;;30.58;;
73879;SDS011;62211;42.986;23.256;2022-09-21T17:17:04;27.45;;;12.35;;
73879;SDS011;62211;42.986;23.256;2022-09-21T17:19:35;35.38;;;15.45;;
73879;SDS011;62211;42.986;23.256;2022-09-21T17:22:03;27.83;;;13.00;;
73879;SDS011;62211;42.986;23.256;2022-09-21T17:24:30;25.38;;;12.10;;
73879;SDS011;62211;42.986;23.256;2022-09-21T17:26:56;29.45;;;14.35;;
73879;SDS011;62211;42.986;23.256;2022-09-21T17:29:24;43.25;;;20.15;;
73879;SDS011;62211;42.986;23.256;2022-09-21T17:31:54;90.63;;;36.72;;
73879;SDS011;62211;42.986;23.256;2022-09-21T17:34:23;71.70;;;30.77;;
73879;SDS011;62211;42.986;23.256;2022-09-21T17:36:51;26.58;;;15.20;;
73879;SDS011;62211;42.986;23.256;2022-09-21T17:39:18;20.85;;;12.13;;
73879;SDS011;62211;42.986;23.256;2022-09-21T17:41:49;42.28;;;21.13;;
73879;SDS011;62211;42.986;23.256;2022-09-21T17:47:10;17.58;;;10.80;;
73879;SDS011;62211;42.986;23.256;2022-09-21T17:49:42;15.75;;;9.70;;
73879;SDS011;62211;42.986;23.256;2022-09-21T17:52:12;19.55;;;12.18;;
73879;SDS011;62211;42.986;23.256;2022-09-21T17:54:58;23.30;;;12.20;;
73879;SDS011;62211;42.986;23.256;2022-09-21T18:00:12;29.77;;;18.67;;
73879;SDS011;62211;42.986;23.256;2022-09-21T18:02:42;23.30;;;15.27;;
73879;SDS011;62211;42.986;23.256;2022-09-21T18:05:29;20.95;;;12.63;;
73879;SDS011;62211;42.986;23.256;2022-09-21T18:07:54;22.63;;;13.15;;
73879;SDS011;62211;42.986;23.256;2022-09-21T18:10:22;20.98;;;13.85;;
73879;SDS011;62211;42.986;23.256;2022-09-21T18:15:44;41.40;;;21.77;;
73879;SDS011;62211;42.986;23.256;2022-09-21T18:18:18;43.08;;;22.85;;
73879;SDS011;62211;42.986;23.256;2022-09-21T18:21:02;25.42;;;13.85;;
73879;SDS011;62211;42.986;23.256;2022-09-21T18:26:13;16.35;;;13.85;;
73879;SDS011;62211;42.986;23.256;2022-09-21T18:45:21;11.93;;;8.75;;
73879;SDS011;62211;42.986;23.256;2022-09-21T18:56:11;33.95;;;19.65;;
73879;SDS011;62211;42.986;23.256;2022-09-21T18:58:38;53.17;;;29.35;;
73879;SDS011;62211;42.986;23.256;2022-09-21T19:01:04;139.32;;;73.68;;
73879;SDS011;62211;42.986;23.256;2022-09-21T19:03:30;95.75;;;51.15;;
73879;SDS011;62211;42.986;23.256;2022-09-21T19:14:50;26.77;;;16.05;;
73879;SDS011;62211;42.986;23.256;2022-09-21T19:22:34;14.85;;;10.73;;
73879;SDS011;62211;42.986;23.256;2022-09-21T19:25:19;19.05;;;13.18;;
73879;SDS011;62211;42.986;23.256;2022-09-21T19:27:51;14.23;;;10.60;;
73879;SDS011;62211;42.986;23.256;2022-09-21T19:30:21;13.13;;;10.15;;
73879;SDS011;62211;42.986;23.256;2022-09-21T19:32:51;18.45;;;11.48;;
73879;SDS011;62211;42.986;23.256;2022-09-21T19:35:27;18.65;;;10.48;;
73879;SDS011;62211;42.986;23.256;2022-09-21T19:37:55;14.43;;;8.80;;
73879;SDS011;62211;42.986;23.256;2022-09-21T19:40:22;20.15;;;12.13;;
73879;SDS011;62211;42.986;23.256;2022-09-21T19:45:43;16.48;;;8.63;;
73879;SDS011;62211;42.986;23.256;2022-09-21T19:48:46;15.73;;;9.85;;
73879;SDS011;62211;42.986;23.256;2022-09-21T19:51:18;21.25;;;12.50;;
73879;SDS011;62211;42.986;23.256;2022-09-21T19:53:55;30.25;;;18.20;;
73879;SDS011;62211;42.986;23.256;2022-09-21T19:56:49;37.25;;;20.67;;